joomla templates top joomla templates template joomla

King Air Abend

Notam

C3641/14 - CUSTOMS AVBL PPR, TEL 0049 9561 92098. 13 NOV 14:46 2014 UNTIL PERM. CREATED: 13 NOV 14:47 2014

Neue Wetteranzeige

Aktuelles Platzwetter 17.01.2017 02:40Z

AvgMinMax
Windrichtung4036070Deg
Windgeschwindigkeit315kt
Sichtweite6000m
Temperatur-5°C
Taupunkt-5°C
Feuchte100%
QNH1029.4hPa
QFE975.3hPa
WolkenSCT013 BKN019 OVC030
Wetter-SN


403 kt

Aerodrome Terminal Information Service (ATIS) Coburg

METAR
SPECI EDQC 170237Z AUTO VRB03KT 5000 -SN FEW010 BKN025 OVC029 M05/M05 Q1029=

METAR und TAF der Umgebung

[Quelle: ADDS]
METAR
EDDF 170220Z 02007KT 9999 BKN022 M03/M07 Q1032 R07L/0///95 R07C/11//95 R07R/0///95 R18/11//95 NOSIG =
EDDN 170220Z 00000KT CAVOK M10/M11 Q1029 R28/49//95 =
EDDE 170220Z 01003KT 9999 -SN BKN033 M04/M05 Q1030 R88/19//95 =
TAF
COR EDDF 162348Z 1700/1806 04008KT 9999 SCT015 BKN020 TEMPO 1700/1712 BKN014 TEMPO 1711/1716 04013KT BECMG 1715/1718 SCT020 =
EDDN 162300Z 1700/1724 02005KT 9999 SCT015 PROB30 TEMPO 1700/1709 BKN012 =
EDDE 162300Z 1700/1724 34005KT 8000 BKN015 TEMPO 1700/1703 BKN008 BECMG 1703/1706 04005KT 4000 BR BKN006 TEMPO 1706/1712 2000 BCFG OVC004 PROB40 TEMPO 1706/1712 0200 FZFG OVC001 TEMPO 1712/1718 6000 SCT006 BKN015 PROB40 TEMPO 1718/1724 0200 FZFG OVC001 =
SR / SS: 07:08 / 15:47 UTC (EDQC 2017-01-17)

Windvorhersage

Verkehrslandeplatz Coburg Brandensteinsebene
Tower
Zur Brandensteinsebene
96450 Coburg

AeroClub Logo 200px

Aero Club Coburg e. V.
Postfach 11 09
96401 Coburg